createdAt,value
2023-03-11T00:00:31.227Z,19.40
2023-03-11T00:03:23.146Z,21.20
2023-03-11T00:06:11.638Z,24.67
2023-03-11T00:09:00.011Z,24.30
2023-03-11T00:11:48.371Z,24.53
2023-03-11T00:14:36.820Z,24.10
2023-03-11T00:17:26.662Z,24.03
2023-03-11T00:20:19.387Z,21.73
2023-03-11T00:23:09.101Z,26.77
2023-03-11T00:25:59.754Z,20.83
2023-03-11T00:28:49.412Z,22.70
2023-03-11T00:31:37.767Z,23.00
2023-03-11T00:34:29.795Z,22.07
2023-03-11T00:37:19.053Z,23.43
2023-03-11T00:40:10.990Z,22.77
2023-03-11T00:42:59.718Z,24.43
2023-03-11T00:45:48.280Z,23.43
2023-03-11T00:48:36.642Z,25.80
2023-03-11T00:51:26.402Z,21.17
2023-03-11T00:54:14.981Z,21.73
2023-03-11T00:57:03.323Z,23.80
2023-03-11T00:59:52.448Z,25.73
2023-03-11T01:02:40.992Z,23.80
2023-03-11T01:05:31.097Z,26.47
2023-03-11T01:08:20.740Z,25.30
2023-03-11T01:11:09.598Z,22.83
2023-03-11T01:13:58.094Z,25.23
2023-03-11T01:16:46.718Z,22.00
2023-03-11T01:19:35.028Z,24.50
2023-03-11T01:22:23.714Z,24.77
2023-03-11T01:25:15.297Z,22.00
2023-03-11T01:28:03.606Z,26.20
2023-03-11T01:30:52.164Z,27.07
2023-03-11T01:33:42.361Z,26.00
2023-03-11T01:36:30.733Z,20.30
2023-03-11T01:39:19.163Z,21.83
2023-03-11T01:42:09.102Z,22.53
2023-03-11T01:44:58.152Z,23.60
2023-03-11T01:47:46.528Z,21.00
2023-03-11T01:50:38.423Z,23.13
2023-03-11T01:53:26.971Z,23.50
2023-03-11T01:56:15.884Z,22.63
2023-03-11T01:59:06.726Z,24.40
2023-03-11T02:02:00.022Z,22.67
2023-03-11T02:04:48.573Z,21.83
2023-03-11T02:07:39.361Z,25.70
2023-03-11T02:10:29.108Z,25.07
2023-03-11T02:13:18.108Z,22.80
2023-03-11T02:16:08.857Z,20.30
2023-03-11T02:18:58.439Z,25.10
2023-03-11T02:21:47.100Z,25.00
2023-03-11T02:24:40.624Z,25.47
2023-03-11T02:27:33.059Z,24.93
2023-03-11T02:30:24.358Z,23.80
2023-03-11T02:33:14.867Z,25.90
2023-03-11T02:36:06.510Z,26.67
2023-03-11T02:38:54.999Z,23.07
2023-03-11T02:41:46.107Z,26.20
2023-03-11T02:44:36.152Z,25.87
2023-03-11T02:47:24.810Z,21.00
2023-03-11T02:50:15.448Z,23.10
2023-03-11T02:53:04.773Z,27.73
2023-03-11T02:55:53.071Z,20.83
2023-03-11T02:58:41.542Z,23.53
2023-03-11T03:01:32.723Z,24.83
2023-03-11T03:04:21.806Z,26.50
2023-03-11T03:07:10.874Z,25.47
2023-03-11T03:09:59.321Z,26.37
2023-03-11T03:12:48.052Z,25.80
2023-03-11T03:15:36.479Z,26.63
2023-03-11T03:18:26.509Z,23.57
2023-03-11T03:21:15.012Z,27.87
2023-03-11T03:24:03.823Z,26.63
2023-03-11T03:26:53.833Z,26.13
2023-03-11T03:29:42.381Z,24.93
2023-03-11T03:32:30.941Z,24.53
2023-03-11T03:35:21.139Z,24.50
2023-03-11T03:38:19.904Z,25.93
2023-03-11T03:41:10.554Z,25.63
2023-03-11T03:44:02.307Z,26.93
2023-03-11T03:46:52.067Z,24.53
2023-03-11T03:49:40.813Z,25.70
2023-03-11T03:52:31.169Z,22.80
2023-03-11T03:55:20.250Z,26.43
2023-03-11T03:58:09.245Z,27.67
2023-03-11T04:00:58.760Z,25.90
2023-03-11T04:03:47.286Z,27.37
2023-03-11T04:06:36.313Z,24.87
2023-03-11T04:09:29.444Z,26.90
2023-03-11T04:12:18.617Z,26.80
2023-03-11T04:15:09.564Z,23.33
2023-03-11T04:17:59.048Z,26.93
2023-03-11T04:20:47.726Z,25.77
2023-03-11T04:23:36.749Z,26.63
2023-03-11T04:26:29.059Z,26.47
2023-03-11T04:29:17.637Z,25.40
2023-03-11T04:32:11.253Z,26.93
2023-03-11T04:35:01.169Z,25.30
2023-03-11T04:37:50.625Z,23.00
2023-03-11T04:40:40.679Z,24.50
2023-03-11T04:43:31.093Z,26.80
2023-03-11T04:46:19.745Z,24.30
2023-03-11T04:49:08.637Z,27.30
2023-03-11T04:51:57.094Z,21.87
2023-03-11T04:54:47.190Z,23.60
2023-03-11T04:57:37.958Z,27.40
2023-03-11T05:00:28.229Z,24.47
2023-03-11T05:03:25.152Z,25.53
2023-03-11T05:06:14.086Z,25.63
2023-03-11T05:09:02.715Z,27.03
2023-03-11T05:11:51.932Z,26.93
2023-03-11T05:14:41.857Z,26.27
2023-03-11T05:17:31.897Z,26.23
2023-03-11T05:20:21.001Z,25.90
2023-03-11T05:23:09.849Z,26.40
2023-03-11T05:25:59.077Z,25.80
2023-03-11T05:28:48.161Z,25.10
2023-03-11T05:31:36.647Z,26.90
2023-03-11T05:34:26.618Z,24.33
2023-03-11T05:37:15.358Z,25.10
2023-03-11T05:40:06.669Z,26.13
2023-03-11T05:42:57.604Z,24.50
2023-03-11T05:45:47.937Z,27.13
2023-03-11T05:48:36.549Z,25.43
2023-03-11T05:51:27.144Z,27.20
2023-03-11T05:54:16.033Z,27.40
2023-03-11T05:57:08.050Z,26.40
2023-03-11T05:59:57.020Z,26.27
2023-03-11T06:02:46.217Z,33.70
2023-03-11T06:05:37.851Z,26.93
2023-03-11T06:08:27.851Z,27.50
2023-03-11T06:11:16.683Z,27.40
2023-03-11T06:14:06.142Z,26.93
2023-03-11T06:16:54.681Z,26.70
2023-03-11T06:19:43.132Z,27.17
2023-03-11T06:22:31.989Z,21.90
2023-03-11T06:25:22.064Z,27.10
2023-03-11T06:28:10.962Z,26.87
2023-03-11T06:31:08.705Z,26.73
2023-03-11T06:33:57.470Z,27.07
2023-03-11T06:36:46.054Z,27.37
2023-03-11T06:39:34.414Z,27.37
2023-03-11T06:42:24.441Z,27.37
2023-03-11T06:45:14.905Z,28.77
2023-03-11T06:48:05.065Z,26.83
2023-03-11T06:50:56.018Z,27.90
2023-03-11T06:53:45.133Z,27.60
2023-03-11T06:56:33.715Z,27.00
2023-03-11T06:59:28.813Z,27.27
2023-03-11T07:02:17.743Z,26.33
2023-03-11T07:05:07.280Z,26.90
2023-03-11T07:07:56.723Z,26.63
2023-03-11T07:10:48.315Z,26.83
2023-03-11T07:13:38.148Z,26.70
2023-03-11T07:16:32.247Z,26.60
2023-03-11T07:19:27.625Z,26.90
2023-03-11T07:22:16.606Z,26.43
2023-03-11T07:25:05.617Z,26.20
2023-03-11T07:27:54.087Z,26.73
2023-03-11T07:30:44.562Z,22.60
2023-03-11T07:33:34.406Z,26.47
2023-03-11T07:36:24.999Z,26.83
2023-03-11T07:39:16.208Z,25.53
2023-03-11T07:42:05.672Z,26.30
2023-03-11T07:44:57.726Z,26.93
2023-03-11T07:47:46.104Z,25.57
2023-03-11T07:50:35.846Z,26.70
2023-03-11T07:53:24.640Z,27.07
2023-03-11T07:56:14.998Z,26.20
2023-03-11T07:59:04.765Z,26.07
2023-03-11T08:01:53.571Z,26.50
2023-03-11T08:04:42.040Z,26.83
2023-03-11T08:07:33.807Z,26.27
2023-03-11T08:10:22.136Z,26.70
2023-03-11T08:13:10.573Z,25.70
2023-03-11T08:15:59.052Z,26.03
2023-03-11T08:18:48.526Z,26.40
2023-03-11T08:21:37.126Z,25.70
2023-03-11T08:24:26.906Z,25.40
2023-03-11T08:27:15.248Z,28.50
2023-03-11T08:30:03.725Z,25.63
2023-03-11T08:32:53.139Z,24.97
2023-03-11T08:35:41.748Z,25.50
2023-03-11T08:38:30.465Z,24.57
2023-03-11T08:41:20.883Z,25.87
2023-03-11T08:44:09.285Z,25.53
2023-03-11T08:46:57.800Z,25.70
2023-03-11T08:49:46.215Z,26.97
2023-03-11T08:52:34.883Z,26.03
2023-03-11T08:55:27.744Z,23.00
2023-03-11T08:58:17.542Z,26.23
2023-03-11T09:01:06.839Z,25.00
2023-03-11T09:03:55.616Z,26.20
2023-03-11T09:06:44.656Z,25.67
2023-03-11T09:09:33.583Z,25.03
2023-03-11T09:12:22.935Z,30.23
2023-03-11T09:15:13.157Z,23.90
2023-03-11T09:18:04.831Z,24.13
2023-03-11T09:20:58.161Z,24.30
2023-03-11T09:23:46.771Z,24.90
2023-03-11T09:26:35.222Z,23.30
2023-03-11T09:29:23.630Z,22.60
2023-03-11T09:32:16.040Z,23.70
2023-03-11T09:35:04.695Z,23.13
2023-03-11T09:37:53.250Z,22.40
2023-03-11T09:40:54.386Z,25.23
2023-03-11T09:43:48.826Z,23.03
2023-03-11T09:47:05.829Z,21.10
2023-03-11T09:50:18.929Z,25.40
2023-03-11T09:53:20.972Z,27.43
2023-03-11T09:56:10.931Z,22.70
2023-03-11T09:59:03.533Z,23.60
2023-03-11T10:01:52.340Z,22.27
2023-03-11T10:04:44.837Z,20.70
2023-03-11T10:07:38.887Z,23.83
2023-03-11T10:10:31.397Z,20.80
2023-03-11T10:13:24.937Z,23.70
2023-03-11T10:16:22.133Z,22.87
2023-03-11T10:19:16.118Z,22.23
2023-03-11T10:22:14.574Z,22.10
2023-03-11T10:25:11.718Z,21.30
2023-03-11T10:28:08.594Z,21.27
2023-03-11T10:30:59.903Z,22.60
2023-03-11T10:33:52.457Z,21.83
2023-03-11T10:36:47.496Z,20.80
2023-03-11T10:39:36.161Z,21.97
2023-03-11T10:42:27.295Z,18.53
2023-03-11T10:45:17.949Z,21.43
2023-03-11T10:48:11.822Z,20.47
2023-03-11T10:51:05.404Z,20.60
2023-03-11T10:53:57.374Z,18.27
2023-03-11T10:56:51.654Z,19.20
2023-03-11T10:59:50.560Z,18.43
2023-03-11T11:02:42.122Z,20.63
2023-03-11T11:05:42.308Z,18.93
2023-03-11T11:08:38.996Z,20.30
2023-03-11T11:11:30.469Z,22.47
2023-03-11T11:14:19.105Z,21.33
2023-03-11T11:17:24.700Z,20.13
2023-03-11T11:20:18.072Z,16.93
2023-03-11T11:23:27.127Z,18.80
2023-03-11T11:26:22.011Z,20.03
2023-03-11T11:29:15.591Z,17.80
2023-03-11T11:32:21.213Z,17.87
2023-03-11T11:35:12.941Z,17.10
2023-03-11T11:38:04.343Z,18.83
2023-03-11T11:40:53.606Z,17.73
2023-03-11T11:43:49.017Z,17.00
2023-03-11T11:46:41.237Z,18.10
2023-03-11T11:49:33.353Z,17.40
2023-03-11T11:52:23.929Z,20.30
2023-03-11T11:55:20.771Z,16.57
2023-03-11T11:58:12.309Z,18.43
2023-03-11T12:01:09.709Z,16.63
2023-03-11T12:04:31.172Z,18.47
2023-03-11T12:07:29.724Z,20.10
2023-03-11T12:10:24.654Z,17.20
2023-03-11T12:13:31.752Z,20.00
2023-03-11T12:16:30.653Z,19.97
2023-03-11T12:19:23.090Z,19.30
2023-03-11T12:22:46.152Z,15.80
2023-03-11T12:25:39.101Z,18.73
2023-03-11T12:28:39.229Z,18.60
2023-03-11T12:31:29.179Z,19.10
2023-03-11T12:34:20.992Z,19.10
2023-03-11T12:37:17.069Z,17.53
2023-03-11T12:40:38.596Z,19.87
2023-03-11T12:44:11.965Z,17.03
2023-03-11T12:47:19.281Z,19.97
2023-03-11T12:50:39.496Z,20.33
2023-03-11T12:53:44.515Z,17.97
2023-03-11T12:56:36.961Z,16.70
2023-03-11T13:00:09.764Z,17.10
2023-03-11T13:03:16.035Z,18.40
2023-03-11T13:06:17.865Z,17.10
2023-03-11T13:09:06.704Z,20.23
2023-03-11T13:11:57.119Z,16.30
2023-03-11T13:14:45.934Z,20.47
2023-03-11T13:17:34.438Z,16.53
2023-03-11T13:20:45.146Z,18.30
2023-03-11T13:23:35.950Z,18.73
2023-03-11T13:26:33.162Z,18.40
2023-03-11T13:29:52.073Z,15.63
2023-03-11T13:32:58.452Z,13.33
2023-03-11T13:35:59.556Z,17.57
2023-03-11T13:39:08.703Z,16.20
2023-03-11T13:41:57.287Z,14.93
2023-03-11T13:44:47.109Z,15.13
2023-03-11T13:47:36.813Z,14.77
2023-03-11T13:50:28.425Z,16.90
2023-03-11T13:53:21.239Z,16.20
2023-03-11T13:56:18.493Z,14.60
2023-03-11T13:59:21.833Z,15.83
2023-03-11T14:02:20.068Z,16.13
2023-03-11T14:05:15.260Z,15.47
2023-03-11T14:08:15.792Z,16.00
2023-03-11T14:11:16.921Z,14.70
2023-03-11T14:14:47.822Z,14.10
2023-03-11T14:17:41.589Z,14.80
2023-03-11T14:20:30.290Z,15.90
2023-03-11T14:23:23.006Z,15.30
2023-03-11T14:26:22.703Z,15.40
2023-03-11T14:29:53.613Z,20.83
2023-03-11T14:33:46.993Z,14.57
2023-03-11T14:36:44.986Z,14.90
2023-03-11T14:39:37.716Z,14.73
2023-03-11T14:43:00.691Z,17.20
2023-03-11T14:46:12.562Z,15.47
2023-03-11T14:49:02.589Z,15.60
2023-03-11T14:51:57.141Z,14.67
2023-03-11T14:54:46.807Z,14.80
2023-03-11T14:57:40.720Z,14.37
2023-03-11T15:00:30.893Z,16.27
2023-03-11T15:03:24.276Z,15.50
2023-03-11T15:06:16.532Z,15.53
2023-03-11T15:09:08.043Z,15.47
2023-03-11T15:11:59.210Z,16.80
2023-03-11T15:14:52.182Z,15.87
2023-03-11T15:17:44.358Z,16.03
2023-03-11T15:20:34.887Z,16.17
2023-03-11T15:23:24.170Z,15.90
2023-03-11T15:26:19.891Z,16.60
2023-03-11T15:29:15.098Z,15.47
2023-03-11T15:32:36.391Z,16.90
2023-03-11T15:35:25.698Z,17.10
2023-03-11T15:38:21.625Z,16.17
2023-03-11T15:41:11.550Z,16.23
2023-03-11T15:44:02.097Z,16.60
2023-03-11T15:46:50.401Z,16.53
2023-03-11T15:49:40.313Z,16.10
2023-03-11T15:52:28.810Z,15.83
2023-03-11T15:55:19.488Z,15.97
2023-03-11T15:58:09.251Z,16.00
2023-03-11T16:00:58.635Z,15.90
2023-03-11T16:03:47.109Z,15.50
2023-03-11T16:06:36.872Z,16.43
2023-03-11T16:09:25.291Z,15.20
2023-03-11T16:12:19.092Z,15.60
2023-03-11T16:15:11.887Z,15.73
2023-03-11T16:18:01.109Z,15.07
2023-03-11T16:20:51.919Z,15.33
2023-03-11T16:23:51.613Z,15.83
2023-03-11T16:26:40.637Z,15.50
2023-03-11T16:29:29.047Z,18.03
2023-03-11T16:32:17.507Z,14.60
2023-03-11T16:35:06.686Z,17.80
2023-03-11T16:37:55.612Z,14.43
2023-03-11T16:40:45.459Z,14.27
2023-03-11T16:43:34.020Z,15.30
2023-03-11T16:46:22.412Z,15.30
2023-03-11T16:49:10.750Z,15.00
2023-03-11T16:51:59.225Z,16.20
2023-03-11T16:54:47.747Z,15.10
2023-03-11T16:57:38.810Z,15.00
2023-03-11T17:00:27.960Z,15.00
2023-03-11T17:03:21.337Z,15.40
2023-03-11T17:06:10.419Z,15.63
2023-03-11T17:08:58.910Z,16.90
2023-03-11T17:11:49.962Z,16.23
2023-03-11T17:14:40.101Z,21.90
2023-03-11T17:17:28.565Z,16.33
2023-03-11T17:20:17.189Z,19.93
2023-03-11T17:23:05.696Z,16.80
2023-03-11T17:25:55.966Z,17.50
2023-03-11T17:28:44.956Z,18.80
2023-03-11T17:31:34.836Z,16.87
2023-03-11T17:34:23.974Z,18.63
2023-03-11T17:37:12.436Z,18.60
2023-03-11T17:40:00.911Z,18.77
2023-03-11T17:42:49.318Z,19.43
2023-03-11T17:45:39.981Z,19.50
2023-03-11T17:48:29.829Z,21.83
2023-03-11T17:51:19.528Z,21.23
2023-03-11T17:54:07.917Z,18.20
2023-03-11T17:56:58.935Z,21.07
2023-03-11T17:59:51.015Z,19.63
2023-03-11T18:02:39.408Z,20.00
2023-03-11T18:05:29.116Z,21.17
2023-03-11T18:08:17.553Z,20.10
2023-03-11T18:11:07.896Z,21.50
2023-03-11T18:13:59.273Z,20.70
2023-03-11T18:16:47.729Z,19.60
2023-03-11T18:19:36.602Z,18.00
2023-03-11T18:22:27.060Z,20.13
2023-03-11T18:25:15.571Z,19.80
2023-03-11T18:28:04.100Z,20.13
2023-03-11T18:30:53.964Z,20.93
2023-03-11T18:33:42.809Z,18.90
2023-03-11T18:36:32.367Z,21.33
2023-03-11T18:39:22.227Z,19.23
2023-03-11T18:42:10.934Z,19.63
2023-03-11T18:44:59.680Z,19.63
2023-03-11T18:47:48.127Z,21.20
2023-03-11T18:50:36.488Z,20.63
2023-03-11T18:53:26.026Z,24.03
2023-03-11T18:56:17.406Z,22.40
2023-03-11T18:59:05.972Z,22.00
2023-03-11T19:01:56.524Z,22.93
2023-03-11T19:04:45.165Z,20.23
2023-03-11T19:07:33.953Z,21.43
2023-03-11T19:10:22.806Z,23.47
2023-03-11T19:13:12.792Z,21.10
2023-03-11T19:16:01.299Z,21.83
2023-03-11T19:18:51.368Z,24.20
2023-03-11T19:21:40.337Z,21.97
2023-03-11T19:24:28.933Z,21.83
2023-03-11T19:27:17.453Z,19.50
2023-03-11T19:30:09.844Z,22.50
2023-03-11T19:33:00.800Z,23.13
2023-03-11T19:35:53.342Z,25.00
2023-03-11T19:38:41.911Z,22.40
2023-03-11T19:41:30.340Z,22.00
2023-03-11T19:44:18.939Z,20.63
2023-03-11T19:47:08.824Z,22.83
2023-03-11T19:49:57.463Z,24.87
2023-03-11T19:52:46.439Z,22.93
2023-03-11T19:55:34.873Z,22.33
2023-03-11T19:58:24.730Z,25.00
2023-03-11T20:01:17.590Z,25.70
2023-03-11T20:04:07.556Z,22.90
2023-03-11T20:06:56.092Z,25.83
2023-03-11T20:09:45.074Z,26.27
2023-03-11T20:12:34.396Z,26.57
2023-03-11T20:15:22.819Z,24.87
2023-03-11T20:18:11.436Z,23.43
2023-03-11T20:21:02.785Z,23.40
2023-03-11T20:23:51.661Z,25.13
2023-03-11T20:26:40.135Z,24.17
2023-03-11T20:29:28.658Z,22.73
2023-03-11T20:32:17.448Z,25.20
2023-03-11T20:35:06.999Z,27.67
2023-03-11T20:37:57.055Z,26.23
2023-03-11T20:40:45.542Z,25.50
2023-03-11T20:43:34.224Z,25.00
2023-03-11T20:46:22.770Z,25.67
2023-03-11T20:49:11.556Z,24.80
2023-03-11T20:52:02.887Z,25.50
2023-03-11T20:54:53.052Z,26.13
2023-03-11T20:57:42.456Z,27.30
2023-03-11T21:00:30.938Z,25.80
2023-03-11T21:03:19.839Z,26.30
2023-03-11T21:06:15.566Z,26.67
2023-03-11T21:09:05.790Z,32.90
2023-03-11T21:11:56.060Z,27.67
2023-03-11T21:14:44.628Z,25.77
2023-03-11T21:17:34.109Z,26.30
2023-03-11T21:20:22.858Z,26.90
2023-03-11T21:23:11.378Z,27.47
2023-03-11T21:26:00.405Z,28.50
2023-03-11T21:28:50.434Z,26.33
2023-03-11T21:31:39.066Z,28.47
2023-03-11T21:34:27.539Z,26.57
2023-03-11T21:37:16.246Z,27.40
2023-03-11T21:40:06.155Z,27.00
2023-03-11T21:42:54.866Z,27.30
2023-03-11T21:45:45.232Z,29.30
2023-03-11T21:48:34.180Z,31.90
2023-03-11T21:51:23.047Z,26.70
2023-03-11T21:54:12.770Z,27.90
2023-03-11T21:57:01.449Z,27.40
2023-03-11T21:59:50.113Z,27.47
2023-03-11T22:02:39.884Z,28.20
2023-03-11T22:05:28.515Z,27.67
2023-03-11T22:08:17.046Z,27.03
2023-03-11T22:11:08.927Z,27.93
2023-03-11T22:14:00.834Z,28.53
2023-03-11T22:16:49.413Z,27.13
2023-03-11T22:19:39.325Z,27.83
2023-03-11T22:22:27.884Z,28.10
2023-03-11T22:25:16.437Z,27.03
2023-03-11T22:28:05.491Z,27.57
2023-03-11T22:30:54.022Z,28.33
2023-03-11T22:33:42.682Z,28.30
2023-03-11T22:36:32.504Z,28.33
2023-03-11T22:39:20.820Z,26.50
2023-03-11T22:42:09.258Z,26.77
2023-03-11T22:44:57.655Z,27.10
2023-03-11T22:47:46.091Z,26.90
2023-03-11T22:50:34.967Z,27.03
2023-03-11T22:53:25.153Z,30.17
2023-03-11T22:56:15.163Z,26.90
2023-03-11T22:59:03.711Z,27.40
2023-03-11T23:01:52.143Z,27.40
2023-03-11T23:04:40.541Z,27.83
2023-03-11T23:07:28.899Z,27.43
2023-03-11T23:10:21.013Z,27.67
2023-03-11T23:13:10.067Z,27.63
2023-03-11T23:16:04.727Z,28.90
2023-03-11T23:18:55.009Z,27.20
2023-03-11T23:21:43.401Z,27.03
2023-03-11T23:24:31.940Z,28.63
2023-03-11T23:27:22.400Z,28.00
2023-03-11T23:30:12.188Z,27.63
2023-03-11T23:33:02.792Z,27.57
2023-03-11T23:35:51.275Z,27.17
2023-03-11T23:38:40.009Z,29.50
2023-03-11T23:41:29.309Z,28.43
2023-03-11T23:44:19.472Z,27.40
2023-03-11T23:47:08.054Z,28.07
2023-03-11T23:49:56.602Z,28.83
2023-03-11T23:52:45.108Z,26.83
2023-03-11T23:55:33.623Z,27.77
2023-03-11T23:58:23.480Z,27.20
